sensor_id;sensor_type;location;lat;lon;timestamp;P1;durP1;ratioP1;P2;durP2;ratioP2
18125;SDS011;53956;52.442;13.284;2023-11-19T00:01:51;13.90;;;9.70;;
18125;SDS011;53956;52.442;13.284;2023-11-19T00:04:17;11.73;;;9.60;;
18125;SDS011;53956;52.442;13.284;2023-11-19T00:06:44;12.90;;;9.40;;
18125;SDS011;53956;52.442;13.284;2023-11-19T00:09:11;12.63;;;10.30;;
18125;SDS011;53956;52.442;13.284;2023-11-19T00:11:39;13.10;;;9.97;;
18125;SDS011;53956;52.442;13.284;2023-11-19T00:14:05;14.63;;;10.07;;
18125;SDS011;53956;52.442;13.284;2023-11-19T00:16:33;13.93;;;10.20;;
18125;SDS011;53956;52.442;13.284;2023-11-19T00:19:00;12.93;;;9.77;;
18125;SDS011;53956;52.442;13.284;2023-11-19T00:21:29;13.43;;;10.20;;
18125;SDS011;53956;52.442;13.284;2023-11-19T00:23:55;14.17;;;9.50;;
18125;SDS011;53956;52.442;13.284;2023-11-19T00:26:23;12.20;;;9.67;;
18125;SDS011;53956;52.442;13.284;2023-11-19T00:28:53;13.63;;;8.93;;
18125;SDS011;53956;52.442;13.284;2023-11-19T00:31:21;12.43;;;10.20;;
18125;SDS011;53956;52.442;13.284;2023-11-19T00:33:48;11.57;;;9.37;;
18125;SDS011;53956;52.442;13.284;2023-11-19T00:36:14;13.33;;;9.70;;
18125;SDS011;53956;52.442;13.284;2023-11-19T00:38:41;12.57;;;9.70;;
18125;SDS011;53956;52.442;13.284;2023-11-19T00:41:08;12.80;;;9.17;;
18125;SDS011;53956;52.442;13.284;2023-11-19T00:43:35;11.70;;;8.67;;
18125;SDS011;53956;52.442;13.284;2023-11-19T00:46:04;12.87;;;9.67;;
18125;SDS011;53956;52.442;13.284;2023-11-19T00:48:35;13.20;;;9.50;;
18125;SDS011;53956;52.442;13.284;2023-11-19T00:51:02;11.87;;;9.47;;
18125;SDS011;53956;52.442;13.284;2023-11-19T00:53:30;13.20;;;9.93;;
18125;SDS011;53956;52.442;13.284;2023-11-19T00:56:00;11.53;;;8.93;;
18125;SDS011;53956;52.442;13.284;2023-11-19T00:58:26;13.07;;;9.77;;
18125;SDS011;53956;52.442;13.284;2023-11-19T01:00:53;13.67;;;9.53;;
18125;SDS011;53956;52.442;13.284;2023-11-19T01:03:21;12.97;;;9.27;;
18125;SDS011;53956;52.442;13.284;2023-11-19T01:05:47;12.73;;;9.70;;
18125;SDS011;53956;52.442;13.284;2023-11-19T01:08:14;11.80;;;9.10;;
18125;SDS011;53956;52.442;13.284;2023-11-19T01:10:42;14.40;;;9.13;;
18125;SDS011;53956;52.442;13.284;2023-11-19T01:13:09;11.67;;;9.03;;
18125;SDS011;53956;52.442;13.284;2023-11-19T01:15:35;11.70;;;9.23;;
18125;SDS011;53956;52.442;13.284;2023-11-19T01:18:02;12.00;;;9.10;;
18125;SDS011;53956;52.442;13.284;2023-11-19T01:20:32;11.47;;;8.67;;
18125;SDS011;53956;52.442;13.284;2023-11-19T01:22:59;9.87;;;8.30;;
18125;SDS011;53956;52.442;13.284;2023-11-19T01:25:26;11.87;;;9.10;;
18125;SDS011;53956;52.442;13.284;2023-11-19T01:27:53;12.23;;;9.13;;
18125;SDS011;53956;52.442;13.284;2023-11-19T01:30:22;14.57;;;9.20;;
18125;SDS011;53956;52.442;13.284;2023-11-19T01:32:49;13.00;;;9.07;;
18125;SDS011;53956;52.442;13.284;2023-11-19T01:35:15;11.87;;;8.93;;
18125;SDS011;53956;52.442;13.284;2023-11-19T01:37:43;11.00;;;8.70;;
18125;SDS011;53956;52.442;13.284;2023-11-19T01:40:11;10.27;;;8.73;;
18125;SDS011;53956;52.442;13.284;2023-11-19T01:42:38;11.83;;;9.27;;
18125;SDS011;53956;52.442;13.284;2023-11-19T01:45:05;12.17;;;9.20;;
18125;SDS011;53956;52.442;13.284;2023-11-19T01:47:34;12.43;;;8.87;;
18125;SDS011;53956;52.442;13.284;2023-11-19T01:50:01;11.27;;;8.80;;
18125;SDS011;53956;52.442;13.284;2023-11-19T01:52:32;11.30;;;8.90;;
18125;SDS011;53956;52.442;13.284;2023-11-19T01:55:01;11.17;;;8.53;;
18125;SDS011;53956;52.442;13.284;2023-11-19T01:57:29;11.93;;;8.30;;
18125;SDS011;53956;52.442;13.284;2023-11-19T01:59:56;9.77;;;8.23;;
18125;SDS011;53956;52.442;13.284;2023-11-19T02:02:23;10.63;;;8.77;;
18125;SDS011;53956;52.442;13.284;2023-11-19T02:04:51;12.53;;;8.53;;
18125;SDS011;53956;52.442;13.284;2023-11-19T02:07:18;11.73;;;8.90;;
18125;SDS011;53956;52.442;13.284;2023-11-19T02:09:45;10.70;;;8.57;;
18125;SDS011;53956;52.442;13.284;2023-11-19T02:12:13;9.33;;;7.63;;
18125;SDS011;53956;52.442;13.284;2023-11-19T02:14:40;10.37;;;8.30;;
18125;SDS011;53956;52.442;13.284;2023-11-19T02:17:07;9.20;;;7.53;;
18125;SDS011;53956;52.442;13.284;2023-11-19T02:19:51;9.07;;;7.47;;
18125;SDS011;53956;52.442;13.284;2023-11-19T02:22:17;8.87;;;7.13;;
18125;SDS011;53956;52.442;13.284;2023-11-19T02:24:44;10.03;;;8.10;;
18125;SDS011;53956;52.442;13.284;2023-11-19T02:27:16;11.00;;;7.57;;
18125;SDS011;53956;52.442;13.284;2023-11-19T02:29:53;10.40;;;7.97;;
18125;SDS011;53956;52.442;13.284;2023-11-19T02:32:20;10.00;;;7.90;;
18125;SDS011;53956;52.442;13.284;2023-11-19T02:34:46;9.17;;;7.37;;
18125;SDS011;53956;52.442;13.284;2023-11-19T02:37:13;12.67;;;7.83;;
18125;SDS011;53956;52.442;13.284;2023-11-19T02:39:41;9.40;;;7.57;;
18125;SDS011;53956;52.442;13.284;2023-11-19T02:42:08;9.90;;;7.93;;
18125;SDS011;53956;52.442;13.284;2023-11-19T02:44:35;11.27;;;8.10;;
18125;SDS011;53956;52.442;13.284;2023-11-19T02:47:04;10.07;;;7.63;;
18125;SDS011;53956;52.442;13.284;2023-11-19T02:49:33;8.70;;;7.43;;
18125;SDS011;53956;52.442;13.284;2023-11-19T02:51:59;10.07;;;7.70;;
18125;SDS011;53956;52.442;13.284;2023-11-19T02:54:26;9.33;;;7.13;;
18125;SDS011;53956;52.442;13.284;2023-11-19T02:56:53;8.73;;;7.20;;
18125;SDS011;53956;52.442;13.284;2023-11-19T02:59:24;8.47;;;6.70;;
18125;SDS011;53956;52.442;13.284;2023-11-19T03:01:53;10.43;;;7.40;;
18125;SDS011;53956;52.442;13.284;2023-11-19T03:04:21;8.40;;;7.03;;
18125;SDS011;53956;52.442;13.284;2023-11-19T03:06:48;8.67;;;6.97;;
18125;SDS011;53956;52.442;13.284;2023-11-19T03:09:15;8.93;;;6.73;;
18125;SDS011;53956;52.442;13.284;2023-11-19T03:11:41;8.53;;;6.77;;
18125;SDS011;53956;52.442;13.284;2023-11-19T03:14:08;9.20;;;6.87;;
18125;SDS011;53956;52.442;13.284;2023-11-19T03:16:35;8.13;;;6.40;;
18125;SDS011;53956;52.442;13.284;2023-11-19T03:19:01;7.57;;;6.60;;
18125;SDS011;53956;52.442;13.284;2023-11-19T03:21:30;10.80;;;7.13;;
18125;SDS011;53956;52.442;13.284;2023-11-19T03:23:57;9.40;;;7.07;;
18125;SDS011;53956;52.442;13.284;2023-11-19T03:26:25;10.30;;;6.90;;
18125;SDS011;53956;52.442;13.284;2023-11-19T03:28:52;8.00;;;7.00;;
18125;SDS011;53956;52.442;13.284;2023-11-19T03:31:19;9.67;;;6.93;;
18125;SDS011;53956;52.442;13.284;2023-11-19T03:33:46;8.83;;;7.20;;
18125;SDS011;53956;52.442;13.284;2023-11-19T03:36:12;11.73;;;7.47;;
18125;SDS011;53956;52.442;13.284;2023-11-19T03:38:40;8.23;;;6.83;;
18125;SDS011;53956;52.442;13.284;2023-11-19T03:41:10;10.03;;;7.97;;
18125;SDS011;53956;52.442;13.284;2023-11-19T03:43:37;14.63;;;9.47;;
18125;SDS011;53956;52.442;13.284;2023-11-19T03:46:05;10.77;;;7.77;;
18125;SDS011;53956;52.442;13.284;2023-11-19T03:48:42;10.83;;;7.37;;
18125;SDS011;53956;52.442;13.284;2023-11-19T03:51:09;11.50;;;8.03;;
18125;SDS011;53956;52.442;13.284;2023-11-19T03:53:36;9.37;;;7.83;;
18125;SDS011;53956;52.442;13.284;2023-11-19T03:56:05;13.37;;;8.50;;
18125;SDS011;53956;52.442;13.284;2023-11-19T03:58:34;14.10;;;8.70;;
18125;SDS011;53956;52.442;13.284;2023-11-19T04:01:01;10.77;;;8.43;;
18125;SDS011;53956;52.442;13.284;2023-11-19T04:03:27;10.50;;;8.77;;
18125;SDS011;53956;52.442;13.284;2023-11-19T04:05:54;10.17;;;8.27;;
18125;SDS011;53956;52.442;13.284;2023-11-19T04:08:21;11.27;;;8.27;;
18125;SDS011;53956;52.442;13.284;2023-11-19T04:10:48;11.53;;;7.97;;
18125;SDS011;53956;52.442;13.284;2023-11-19T04:13:16;13.37;;;8.07;;
18125;SDS011;53956;52.442;13.284;2023-11-19T04:15:43;12.30;;;8.47;;
18125;SDS011;53956;52.442;13.284;2023-11-19T04:18:09;11.33;;;8.30;;
18125;SDS011;53956;52.442;13.284;2023-11-19T04:20:36;11.83;;;8.70;;
18125;SDS011;53956;52.442;13.284;2023-11-19T04:23:03;11.87;;;8.57;;
18125;SDS011;53956;52.442;13.284;2023-11-19T04:25:29;10.53;;;8.53;;
18125;SDS011;53956;52.442;13.284;2023-11-19T04:27:56;11.63;;;8.20;;
18125;SDS011;53956;52.442;13.284;2023-11-19T04:30:24;12.23;;;8.77;;
18125;SDS011;53956;52.442;13.284;2023-11-19T04:32:50;12.60;;;9.00;;
18125;SDS011;53956;52.442;13.284;2023-11-19T04:35:17;12.13;;;9.20;;
18125;SDS011;53956;52.442;13.284;2023-11-19T04:37:44;11.83;;;9.13;;
18125;SDS011;53956;52.442;13.284;2023-11-19T04:40:11;10.63;;;8.30;;
18125;SDS011;53956;52.442;13.284;2023-11-19T04:42:38;12.50;;;9.07;;
18125;SDS011;53956;52.442;13.284;2023-11-19T04:45:06;13.30;;;9.03;;
18125;SDS011;53956;52.442;13.284;2023-11-19T04:47:36;12.17;;;9.23;;
18125;SDS011;53956;52.442;13.284;2023-11-19T04:50:03;12.27;;;9.07;;
18125;SDS011;53956;52.442;13.284;2023-11-19T04:52:30;11.80;;;8.97;;
18125;SDS011;53956;52.442;13.284;2023-11-19T04:54:57;11.60;;;8.73;;
18125;SDS011;53956;52.442;13.284;2023-11-19T04:57:23;13.30;;;9.13;;
18125;SDS011;53956;52.442;13.284;2023-11-19T04:59:50;11.43;;;8.80;;
18125;SDS011;53956;52.442;13.284;2023-11-19T05:02:17;12.47;;;9.00;;
18125;SDS011;53956;52.442;13.284;2023-11-19T05:04:44;10.63;;;8.77;;
18125;SDS011;53956;52.442;13.284;2023-11-19T05:07:12;11.10;;;8.67;;
18125;SDS011;53956;52.442;13.284;2023-11-19T05:09:38;11.47;;;8.30;;
18125;SDS011;53956;52.442;13.284;2023-11-19T05:12:05;10.57;;;7.77;;
18125;SDS011;53956;52.442;13.284;2023-11-19T05:14:34;11.17;;;8.40;;
18125;SDS011;53956;52.442;13.284;2023-11-19T05:17:01;9.93;;;7.77;;
18125;SDS011;53956;52.442;13.284;2023-11-19T05:19:28;10.00;;;8.00;;
18125;SDS011;53956;52.442;13.284;2023-11-19T05:21:56;12.10;;;8.33;;
18125;SDS011;53956;52.442;13.284;2023-11-19T05:24:22;10.67;;;8.27;;
18125;SDS011;53956;52.442;13.284;2023-11-19T05:26:49;9.40;;;7.87;;
18125;SDS011;53956;52.442;13.284;2023-11-19T05:29:16;12.23;;;9.00;;
18125;SDS011;53956;52.442;13.284;2023-11-19T05:31:42;11.20;;;8.23;;
18125;SDS011;53956;52.442;13.284;2023-11-19T05:34:09;10.77;;;8.47;;
18125;SDS011;53956;52.442;13.284;2023-11-19T05:36:36;11.30;;;8.50;;
18125;SDS011;53956;52.442;13.284;2023-11-19T05:39:05;11.50;;;8.83;;
18125;SDS011;53956;52.442;13.284;2023-11-19T05:41:32;11.27;;;9.03;;
18125;SDS011;53956;52.442;13.284;2023-11-19T05:43:59;15.23;;;9.20;;
18125;SDS011;53956;52.442;13.284;2023-11-19T05:46:26;10.77;;;8.83;;
18125;SDS011;53956;52.442;13.284;2023-11-19T05:48:54;10.90;;;8.90;;
18125;SDS011;53956;52.442;13.284;2023-11-19T05:51:20;11.10;;;8.80;;
18125;SDS011;53956;52.442;13.284;2023-11-19T05:53:49;10.10;;;8.27;;
18125;SDS011;53956;52.442;13.284;2023-11-19T05:56:17;12.13;;;8.63;;
18125;SDS011;53956;52.442;13.284;2023-11-19T05:58:46;11.47;;;8.37;;
18125;SDS011;53956;52.442;13.284;2023-11-19T06:01:14;9.67;;;8.33;;
18125;SDS011;53956;52.442;13.284;2023-11-19T06:03:41;11.67;;;8.63;;
18125;SDS011;53956;52.442;13.284;2023-11-19T06:06:12;11.23;;;8.67;;
18125;SDS011;53956;52.442;13.284;2023-11-19T06:08:39;11.53;;;8.77;;
18125;SDS011;53956;52.442;13.284;2023-11-19T06:11:05;11.00;;;8.77;;
18125;SDS011;53956;52.442;13.284;2023-11-19T06:13:33;9.70;;;8.40;;
18125;SDS011;53956;52.442;13.284;2023-11-19T06:16:00;10.97;;;8.90;;
18125;SDS011;53956;52.442;13.284;2023-11-19T06:18:27;11.27;;;9.07;;
18125;SDS011;53956;52.442;13.284;2023-11-19T06:20:56;11.30;;;8.57;;
18125;SDS011;53956;52.442;13.284;2023-11-19T06:23:23;10.57;;;8.73;;
18125;SDS011;53956;52.442;13.284;2023-11-19T06:25:49;11.63;;;9.20;;
18125;SDS011;53956;52.442;13.284;2023-11-19T06:28:16;11.40;;;8.80;;
18125;SDS011;53956;52.442;13.284;2023-11-19T06:30:44;11.07;;;9.47;;
18125;SDS011;53956;52.442;13.284;2023-11-19T06:33:12;11.17;;;8.60;;
18125;SDS011;53956;52.442;13.284;2023-11-19T06:35:39;11.40;;;8.93;;
18125;SDS011;53956;52.442;13.284;2023-11-19T06:38:05;12.10;;;8.33;;
18125;SDS011;53956;52.442;13.284;2023-11-19T06:40:33;11.17;;;8.37;;
18125;SDS011;53956;52.442;13.284;2023-11-19T06:43:01;11.57;;;8.60;;
18125;SDS011;53956;52.442;13.284;2023-11-19T06:45:28;10.10;;;8.53;;
18125;SDS011;53956;52.442;13.284;2023-11-19T06:47:56;10.67;;;8.03;;
18125;SDS011;53956;52.442;13.284;2023-11-19T06:50:23;10.43;;;8.77;;
18125;SDS011;53956;52.442;13.284;2023-11-19T06:52:50;11.70;;;9.20;;
18125;SDS011;53956;52.442;13.284;2023-11-19T06:55:17;10.27;;;8.57;;
18125;SDS011;53956;52.442;13.284;2023-11-19T06:57:43;9.27;;;8.10;;
18125;SDS011;53956;52.442;13.284;2023-11-19T07:00:10;10.33;;;8.00;;
18125;SDS011;53956;52.442;13.284;2023-11-19T07:02:38;10.50;;;8.33;;
18125;SDS011;53956;52.442;13.284;2023-11-19T07:05:06;9.83;;;8.40;;
18125;SDS011;53956;52.442;13.284;2023-11-19T07:07:33;10.00;;;8.43;;
18125;SDS011;53956;52.442;13.284;2023-11-19T07:10:00;10.47;;;8.90;;
18125;SDS011;53956;52.442;13.284;2023-11-19T07:12:27;11.30;;;8.30;;
18125;SDS011;53956;52.442;13.284;2023-11-19T07:14:53;10.07;;;8.23;;
18125;SDS011;53956;52.442;13.284;2023-11-19T07:17:21;12.10;;;8.87;;
18125;SDS011;53956;52.442;13.284;2023-11-19T07:19:49;11.23;;;8.57;;
18125;SDS011;53956;52.442;13.284;2023-11-19T07:22:17;11.73;;;8.30;;
18125;SDS011;53956;52.442;13.284;2023-11-19T07:24:43;10.50;;;8.20;;
18125;SDS011;53956;52.442;13.284;2023-11-19T07:27:10;10.20;;;7.73;;
18125;SDS011;53956;52.442;13.284;2023-11-19T07:29:37;10.87;;;8.07;;
18125;SDS011;53956;52.442;13.284;2023-11-19T07:32:04;10.87;;;8.83;;
18125;SDS011;53956;52.442;13.284;2023-11-19T07:34:33;10.70;;;8.70;;
18125;SDS011;53956;52.442;13.284;2023-11-19T07:37:00;10.47;;;8.40;;
18125;SDS011;53956;52.442;13.284;2023-11-19T07:39:29;10.40;;;8.27;;
18125;SDS011;53956;52.442;13.284;2023-11-19T07:41:55;9.63;;;7.80;;
18125;SDS011;53956;52.442;13.284;2023-11-19T07:44:22;9.77;;;7.60;;
18125;SDS011;53956;52.442;13.284;2023-11-19T07:46:49;8.77;;;7.47;;
18125;SDS011;53956;52.442;13.284;2023-11-19T07:49:16;9.23;;;7.83;;
18125;SDS011;53956;52.442;13.284;2023-11-19T07:51:43;11.33;;;7.90;;
18125;SDS011;53956;52.442;13.284;2023-11-19T07:54:09;9.17;;;7.60;;
18125;SDS011;53956;52.442;13.284;2023-11-19T07:56:37;9.27;;;7.53;;
18125;SDS011;53956;52.442;13.284;2023-11-19T07:59:04;9.17;;;7.30;;
18125;SDS011;53956;52.442;13.284;2023-11-19T08:01:31;8.67;;;7.40;;
18125;SDS011;53956;52.442;13.284;2023-11-19T08:03:58;9.03;;;7.30;;
18125;SDS011;53956;52.442;13.284;2023-11-19T08:06:27;6.90;;;6.20;;
18125;SDS011;53956;52.442;13.284;2023-11-19T08:08:53;8.50;;;6.80;;
18125;SDS011;53956;52.442;13.284;2023-11-19T08:11:20;8.93;;;7.03;;
18125;SDS011;53956;52.442;13.284;2023-11-19T08:13:48;7.43;;;6.20;;
18125;SDS011;53956;52.442;13.284;2023-11-19T08:16:14;7.63;;;6.63;;
18125;SDS011;53956;52.442;13.284;2023-11-19T08:18:41;9.63;;;7.27;;
18125;SDS011;53956;52.442;13.284;2023-11-19T08:21:09;7.80;;;6.00;;
18125;SDS011;53956;52.442;13.284;2023-11-19T08:23:36;7.93;;;6.13;;
18125;SDS011;53956;52.442;13.284;2023-11-19T08:26:03;9.10;;;6.53;;
18125;SDS011;53956;52.442;13.284;2023-11-19T08:28:30;7.53;;;6.50;;
18125;SDS011;53956;52.442;13.284;2023-11-19T08:31:00;7.60;;;5.57;;
18125;SDS011;53956;52.442;13.284;2023-11-19T08:33:29;9.37;;;6.20;;
18125;SDS011;53956;52.442;13.284;2023-11-19T08:35:55;6.60;;;5.90;;
18125;SDS011;53956;52.442;13.284;2023-11-19T08:38:23;7.17;;;5.50;;
18125;SDS011;53956;52.442;13.284;2023-11-19T08:40:50;7.10;;;5.90;;
18125;SDS011;53956;52.442;13.284;2023-11-19T08:43:17;7.60;;;6.20;;
18125;SDS011;53956;52.442;13.284;2023-11-19T08:45:43;7.80;;;6.00;;
18125;SDS011;53956;52.442;13.284;2023-11-19T08:48:11;7.07;;;6.37;;
18125;SDS011;53956;52.442;13.284;2023-11-19T08:50:38;7.60;;;6.10;;
18125;SDS011;53956;52.442;13.284;2023-11-19T08:53:04;8.57;;;6.40;;
18125;SDS011;53956;52.442;13.284;2023-11-19T08:55:31;7.43;;;6.53;;
18125;SDS011;53956;52.442;13.284;2023-11-19T08:57:58;10.77;;;7.03;;
18125;SDS011;53956;52.442;13.284;2023-11-19T09:00:25;11.17;;;7.47;;
18125;SDS011;53956;52.442;13.284;2023-11-19T09:02:51;12.77;;;8.60;;
18125;SDS011;53956;52.442;13.284;2023-11-19T09:05:19;14.30;;;9.30;;
18125;SDS011;53956;52.442;13.284;2023-11-19T09:07:46;15.53;;;9.50;;
18125;SDS011;53956;52.442;13.284;2023-11-19T09:10:13;17.77;;;10.50;;
18125;SDS011;53956;52.442;13.284;2023-11-19T09:12:40;21.27;;;11.43;;
18125;SDS011;53956;52.442;13.284;2023-11-19T09:15:07;22.87;;;12.90;;
18125;SDS011;53956;52.442;13.284;2023-11-19T09:17:35;22.17;;;13.00;;
18125;SDS011;53956;52.442;13.284;2023-11-19T09:20:02;17.77;;;11.17;;
18125;SDS011;53956;52.442;13.284;2023-11-19T09:22:30;16.30;;;10.20;;
18125;SDS011;53956;52.442;13.284;2023-11-19T09:24:57;12.97;;;8.70;;
18125;SDS011;53956;52.442;13.284;2023-11-19T09:27:25;9.73;;;6.93;;
18125;SDS011;53956;52.442;13.284;2023-11-19T09:29:52;11.07;;;6.73;;
18125;SDS011;53956;52.442;13.284;2023-11-19T09:32:22;12.27;;;5.93;;
18125;SDS011;53956;52.442;13.284;2023-11-19T09:34:49;6.73;;;5.40;;
18125;SDS011;53956;52.442;13.284;2023-11-19T09:37:15;5.70;;;4.40;;
18125;SDS011;53956;52.442;13.284;2023-11-19T09:39:43;5.33;;;4.20;;
18125;SDS011;53956;52.442;13.284;2023-11-19T09:42:10;6.67;;;4.63;;
18125;SDS011;53956;52.442;13.284;2023-11-19T09:44:38;8.67;;;4.40;;
18125;SDS011;53956;52.442;13.284;2023-11-19T09:47:05;7.20;;;4.10;;
18125;SDS011;53956;52.442;13.284;2023-11-19T09:49:33;7.43;;;4.20;;
18125;SDS011;53956;52.442;13.284;2023-11-19T09:52:01;6.00;;;3.90;;
18125;SDS011;53956;52.442;13.284;2023-11-19T09:54:28;4.93;;;3.90;;
18125;SDS011;53956;52.442;13.284;2023-11-19T09:56:56;6.87;;;4.10;;
18125;SDS011;53956;52.442;13.284;2023-11-19T09:59:27;5.27;;;3.73;;
18125;SDS011;53956;52.442;13.284;2023-11-19T10:01:55;4.93;;;3.53;;
18125;SDS011;53956;52.442;13.284;2023-11-19T10:04:22;4.77;;;3.30;;
18125;SDS011;53956;52.442;13.284;2023-11-19T10:06:51;5.07;;;3.10;;
18125;SDS011;53956;52.442;13.284;2023-11-19T10:09:18;4.97;;;3.13;;
18125;SDS011;53956;52.442;13.284;2023-11-19T10:11:44;4.20;;;3.40;;
18125;SDS011;53956;52.442;13.284;2023-11-19T10:14:13;4.73;;;3.40;;
18125;SDS011;53956;52.442;13.284;2023-11-19T10:16:40;8.03;;;4.07;;
18125;SDS011;53956;52.442;13.284;2023-11-19T10:19:08;7.03;;;3.90;;
18125;SDS011;53956;52.442;13.284;2023-11-19T10:21:44;6.23;;;3.47;;
18125;SDS011;53956;52.442;13.284;2023-11-19T10:24:12;5.80;;;3.70;;
18125;SDS011;53956;52.442;13.284;2023-11-19T10:26:38;7.40;;;3.90;;
18125;SDS011;53956;52.442;13.284;2023-11-19T10:29:07;7.17;;;3.90;;
18125;SDS011;53956;52.442;13.284;2023-11-19T10:31:35;9.70;;;3.83;;
18125;SDS011;53956;52.442;13.284;2023-11-19T10:34:02;7.93;;;3.70;;
18125;SDS011;53956;52.442;13.284;2023-11-19T10:36:39;11.97;;;4.10;;
18125;SDS011;53956;52.442;13.284;2023-11-19T10:39:07;9.93;;;4.20;;
18125;SDS011;53956;52.442;13.284;2023-11-19T10:41:34;8.70;;;4.30;;
18125;SDS011;53956;52.442;13.284;2023-11-19T10:44:01;11.83;;;4.07;;
18125;SDS011;53956;52.442;13.284;2023-11-19T10:46:37;7.87;;;3.73;;
18125;SDS011;53956;52.442;13.284;2023-11-19T10:49:05;11.77;;;4.10;;
18125;SDS011;53956;52.442;13.284;2023-11-19T10:51:32;10.00;;;4.00;;
18125;SDS011;53956;52.442;13.284;2023-11-19T10:54:01;11.87;;;4.23;;
18125;SDS011;53956;52.442;13.284;2023-11-19T10:56:30;11.63;;;4.60;;
18125;SDS011;53956;52.442;13.284;2023-11-19T10:58:58;11.33;;;4.80;;
18125;SDS011;53956;52.442;13.284;2023-11-19T11:01:26;12.27;;;4.80;;
18125;SDS011;53956;52.442;13.284;2023-11-19T11:04:00;14.37;;;4.97;;
18125;SDS011;53956;52.442;13.284;2023-11-19T11:06:29;12.80;;;4.30;;
18125;SDS011;53956;52.442;13.284;2023-11-19T11:08:55;11.60;;;4.73;;
18125;SDS011;53956;52.442;13.284;2023-11-19T11:11:23;13.77;;;4.80;;
18125;SDS011;53956;52.442;13.284;2023-11-19T11:13:51;11.03;;;4.30;;
18125;SDS011;53956;52.442;13.284;2023-11-19T11:16:20;13.17;;;4.87;;
18125;SDS011;53956;52.442;13.284;2023-11-19T11:18:50;13.67;;;4.77;;
18125;SDS011;53956;52.442;13.284;2023-11-19T11:21:21;11.57;;;5.00;;
18125;SDS011;53956;52.442;13.284;2023-11-19T11:23:56;16.17;;;5.23;;
18125;SDS011;53956;52.442;13.284;2023-11-19T11:26:41;19.87;;;5.93;;
18125;SDS011;53956;52.442;13.284;2023-11-19T11:29:21;21.23;;;6.30;;
18125;SDS011;53956;52.442;13.284;2023-11-19T11:32:04;17.57;;;5.73;;
18125;SDS011;53956;52.442;13.284;2023-11-19T11:34:42;20.13;;;5.67;;
18125;SDS011;53956;52.442;13.284;2023-11-19T11:37:18;14.63;;;6.00;;
18125;SDS011;53956;52.442;13.284;2023-11-19T11:39:49;15.73;;;5.77;;
18125;SDS011;53956;52.442;13.284;2023-11-19T11:42:34;15.20;;;5.70;;
18125;SDS011;53956;52.442;13.284;2023-11-19T11:45:03;14.87;;;5.57;;
18125;SDS011;53956;52.442;13.284;2023-11-19T11:50:31;22.07;;;5.93;;
18125;SDS011;53956;52.442;13.284;2023-11-19T11:53:14;19.97;;;6.23;;
18125;SDS011;53956;52.442;13.284;2023-11-19T11:55:54;16.20;;;5.03;;
18125;SDS011;53956;52.442;13.284;2023-11-19T12:01:10;18.60;;;6.53;;
18125;SDS011;53956;52.442;13.284;2023-11-19T12:03:45;17.27;;;5.70;;
18125;SDS011;53956;52.442;13.284;2023-11-19T12:06:12;14.40;;;5.40;;
18125;SDS011;53956;52.442;13.284;2023-11-19T12:08:40;20.60;;;5.60;;
18125;SDS011;53956;52.442;13.284;2023-11-19T12:11:07;19.10;;;5.63;;
18125;SDS011;53956;52.442;13.284;2023-11-19T12:13:47;19.37;;;5.50;;
18125;SDS011;53956;52.442;13.284;2023-11-19T12:16:19;16.47;;;5.60;;
18125;SDS011;53956;52.442;13.284;2023-11-19T12:18:46;19.57;;;6.17;;
18125;SDS011;53956;52.442;13.284;2023-11-19T12:21:26;19.23;;;5.93;;
18125;SDS011;53956;52.442;13.284;2023-11-19T12:23:56;18.30;;;5.60;;
18125;SDS011;53956;52.442;13.284;2023-11-19T12:26:33;15.27;;;5.57;;
18125;SDS011;53956;52.442;13.284;2023-11-19T12:29:00;18.70;;;5.97;;
18125;SDS011;53956;52.442;13.284;2023-11-19T12:31:31;20.20;;;5.97;;
18125;SDS011;53956;52.442;13.284;2023-11-19T12:34:00;20.67;;;6.47;;
18125;SDS011;53956;52.442;13.284;2023-11-19T12:36:31;21.00;;;5.80;;
18125;SDS011;53956;52.442;13.284;2023-11-19T12:38:59;18.37;;;5.87;;
18125;SDS011;53956;52.442;13.284;2023-11-19T12:41:26;21.77;;;6.63;;
18125;SDS011;53956;52.442;13.284;2023-11-19T12:43:53;24.60;;;6.13;;
18125;SDS011;53956;52.442;13.284;2023-11-19T12:46:20;25.10;;;6.03;;
18125;SDS011;53956;52.442;13.284;2023-11-19T12:48:48;27.87;;;6.80;;
18125;SDS011;53956;52.442;13.284;2023-11-19T12:51:15;27.90;;;6.83;;
18125;SDS011;53956;52.442;13.284;2023-11-19T12:53:48;16.17;;;6.07;;
18125;SDS011;53956;52.442;13.284;2023-11-19T12:56:20;26.27;;;6.57;;
18125;SDS011;53956;52.442;13.284;2023-11-19T12:58:47;20.63;;;6.73;;
18125;SDS011;53956;52.442;13.284;2023-11-19T13:01:15;23.90;;;6.57;;
18125;SDS011;53956;52.442;13.284;2023-11-19T13:03:43;22.70;;;6.23;;
18125;SDS011;53956;52.442;13.284;2023-11-19T13:06:11;23.23;;;6.00;;
18125;SDS011;53956;52.442;13.284;2023-11-19T13:08:39;25.40;;;6.93;;
18125;SDS011;53956;52.442;13.284;2023-11-19T13:11:06;26.33;;;6.33;;
18125;SDS011;53956;52.442;13.284;2023-11-19T13:16:29;29.27;;;6.57;;
18125;SDS011;53956;52.442;13.284;2023-11-19T13:18:56;25.80;;;6.50;;
18125;SDS011;53956;52.442;13.284;2023-11-19T13:21:24;27.10;;;6.53;;
18125;SDS011;53956;52.442;13.284;2023-11-19T13:23:51;23.63;;;6.57;;
18125;SDS011;53956;52.442;13.284;2023-11-19T13:26:17;24.50;;;6.07;;
18125;SDS011;53956;52.442;13.284;2023-11-19T13:28:44;22.23;;;6.47;;
18125;SDS011;53956;52.442;13.284;2023-11-19T13:31:12;22.63;;;6.53;;
18125;SDS011;53956;52.442;13.284;2023-11-19T13:33:39;22.83;;;6.27;;
18125;SDS011;53956;52.442;13.284;2023-11-19T13:36:06;22.83;;;6.40;;
18125;SDS011;53956;52.442;13.284;2023-11-19T13:38:33;27.30;;;6.80;;
18125;SDS011;53956;52.442;13.284;2023-11-19T13:41:00;25.07;;;6.37;;
18125;SDS011;53956;52.442;13.284;2023-11-19T13:43:27;27.83;;;6.73;;
18125;SDS011;53956;52.442;13.284;2023-11-19T13:45:54;22.47;;;6.40;;
18125;SDS011;53956;52.442;13.284;2023-11-19T13:48:22;25.27;;;6.40;;
18125;SDS011;53956;52.442;13.284;2023-11-19T13:50:48;27.13;;;6.77;;
18125;SDS011;53956;52.442;13.284;2023-11-19T13:53:15;28.63;;;6.73;;
18125;SDS011;53956;52.442;13.284;2023-11-19T13:55:42;23.77;;;5.90;;
18125;SDS011;53956;52.442;13.284;2023-11-19T13:58:09;24.13;;;6.63;;
18125;SDS011;53956;52.442;13.284;2023-11-19T14:00:36;22.53;;;6.97;;
18125;SDS011;53956;52.442;13.284;2023-11-19T14:03:02;23.60;;;7.13;;
18125;SDS011;53956;52.442;13.284;2023-11-19T14:05:30;23.80;;;6.30;;
18125;SDS011;53956;52.442;13.284;2023-11-19T14:07:57;23.07;;;6.70;;
18125;SDS011;53956;52.442;13.284;2023-11-19T14:10:24;36.57;;;8.00;;
18125;SDS011;53956;52.442;13.284;2023-11-19T14:12:50;29.90;;;7.07;;
18125;SDS011;53956;52.442;13.284;2023-11-19T14:15:17;27.83;;;6.87;;
18125;SDS011;53956;52.442;13.284;2023-11-19T14:17:44;26.40;;;6.93;;
18125;SDS011;53956;52.442;13.284;2023-11-19T14:20:11;23.90;;;6.77;;
18125;SDS011;53956;52.442;13.284;2023-11-19T14:22:40;34.47;;;6.90;;
18125;SDS011;53956;52.442;13.284;2023-11-19T14:25:07;23.63;;;6.70;;
18125;SDS011;53956;52.442;13.284;2023-11-19T14:27:35;23.60;;;6.10;;
18125;SDS011;53956;52.442;13.284;2023-11-19T14:30:04;29.70;;;6.73;;
18125;SDS011;53956;52.442;13.284;2023-11-19T14:32:31;26.13;;;6.47;;
18125;SDS011;53956;52.442;13.284;2023-11-19T14:34:58;27.77;;;6.57;;
18125;SDS011;53956;52.442;13.284;2023-11-19T14:37:25;30.77;;;6.20;;